createdAt,value
2019-01-29T00:00:29.431Z,99956.94
2019-01-29T00:04:34.556Z,99950.76
2019-01-29T00:08:39.700Z,99962.59
2019-01-29T00:12:44.754Z,99957.45
2019-01-29T00:16:49.941Z,99958.94
2019-01-29T00:20:55.143Z,99956.66
2019-01-29T00:25:00.252Z,99961.45
2019-01-29T00:29:05.389Z,99958.80
2019-01-29T00:33:10.504Z,99946.91
2019-01-29T00:37:15.575Z,99956.89
2019-01-29T00:41:20.696Z,99955.01
2019-01-29T00:45:25.745Z,99959.16
2019-01-29T00:49:30.886Z,99952.45
2019-01-29T00:53:35.976Z,99965.98
2019-01-29T01:06:26.923Z,99970.23
2019-01-29T01:10:51.076Z,99985.63
2019-01-29T01:14:56.274Z,99981.17
2019-01-29T01:19:20.442Z,99978.13
2019-01-29T01:23:27.175Z,99993.91
2019-01-29T01:27:51.334Z,99988.46
2019-01-29T01:32:15.416Z,99991.91
2019-01-29T01:36:39.648Z,99990.06
2019-01-29T01:41:03.818Z,100001.75
2019-01-29T01:45:28.052Z,99997.91
2019-01-29T01:49:52.074Z,100007.49
2019-01-29T01:58:32.715Z,100003.20
2019-01-29T02:02:49.818Z,100001.45
2019-01-29T02:07:13.952Z,100014.59
2019-01-29T02:11:31.160Z,100003.40
2019-01-29T02:15:55.294Z,100010.88
2019-01-29T02:20:19.370Z,100015.13
2019-01-29T02:24:43.452Z,100025.02
2019-01-29T02:29:07.583Z,100018.48
2019-01-29T02:33:12.972Z,100014.09
2019-01-29T02:37:18.022Z,100023.68
2019-01-29T02:41:23.066Z,100030.52
2019-01-29T02:45:28.129Z,100019.08
2019-01-29T02:49:44.974Z,100024.47
2019-01-29T02:53:50.588Z,100019.63
2019-01-29T02:57:55.642Z,100023.08
2019-01-29T03:02:00.709Z,100026.13
2019-01-29T03:10:42.847Z,100017.78
2019-01-29T03:14:47.917Z,100032.61
2019-01-29T03:19:12.119Z,100022.22
2019-01-29T03:23:17.246Z,100019.03
2019-01-29T03:27:23.923Z,100018.08
2019-01-29T03:31:29.001Z,100018.98
2019-01-29T03:35:53.145Z,100021.58
2019-01-29T03:39:58.254Z,100020.73
2019-01-29T03:44:03.377Z,100017.19
2019-01-29T03:48:08.415Z,100024.42
2019-01-29T03:52:13.459Z,100027.82
2019-01-29T04:00:35.470Z,100021.58
2019-01-29T04:04:40.360Z,100037.41
2019-01-29T04:08:45.378Z,100026.42
2019-01-29T04:17:20.516Z,100025.17
2019-01-29T04:21:25.702Z,100024.77
2019-01-29T04:25:30.818Z,100024.82
2019-01-29T04:29:35.992Z,100034.27
2019-01-29T04:38:16.070Z,100033.41
2019-01-29T04:42:32.631Z,100021.28
2019-01-29T04:46:37.713Z,100026.47
2019-01-29T04:51:01.923Z,100021.77
2019-01-29T04:55:07.538Z,100014.09
2019-01-29T05:04:01.328Z,100017.19
2019-01-29T05:08:06.444Z,100024.63
2019-01-29T05:12:30.626Z,100025.07
2019-01-29T05:16:35.685Z,100019.08
2019-01-29T05:20:40.747Z,100010.22
2019-01-29T05:25:04.915Z,100008.38
2019-01-29T05:29:10.363Z,100008.08
2019-01-29T05:33:34.579Z,100009.28
2019-01-29T05:37:39.695Z,99997.17
2019-01-29T05:41:44.799Z,99993.28
2019-01-29T05:46:09.063Z,99998.52
2019-01-29T05:50:14.298Z,99996.92
2019-01-29T05:54:19.356Z,100002.75
2019-01-29T05:58:36.288Z,99998.56
2019-01-29T06:02:53.030Z,99995.73
2019-01-29T06:06:58.157Z,99988.75
2019-01-29T06:11:22.255Z,99991.26
2019-01-29T06:15:27.369Z,99993.80
2019-01-29T06:19:32.447Z,99994.70
2019-01-29T06:23:37.770Z,100008.02
2019-01-29T06:27:42.810Z,100007.79
2019-01-29T06:32:06.895Z,100003.89
2019-01-29T06:36:11.932Z,100010.64
2019-01-29T06:40:19.284Z,100018.39
2019-01-29T06:44:24.222Z,100018.39
2019-01-29T06:48:48.246Z,100021.33
2019-01-29T06:57:10.489Z,100022.44
2019-01-29T07:01:15.539Z,100027.18
2019-01-29T07:05:20.570Z,100025.88
2019-01-29T07:09:37.741Z,100027.18
2019-01-29T07:14:01.850Z,100016.94
2019-01-29T07:18:37.739Z,100018.94
2019-01-29T07:26:59.136Z,100016.84
2019-01-29T07:31:05.892Z,100009.45
2019-01-29T07:39:40.419Z,100001.30
2019-01-29T07:43:45.505Z,100009.80
2019-01-29T07:47:50.614Z,100000.85
2019-01-29T07:51:55.886Z,99996.77
2019-01-29T07:56:00.966Z,99989.75
2019-01-29T08:00:06.855Z,99989.77
2019-01-29T08:08:29.826Z,99986.70
2019-01-29T08:12:35.020Z,99991.75
2019-01-29T08:16:40.018Z,99994.45
2019-01-29T08:20:45.105Z,99990.89
2019-01-29T08:25:09.200Z,99994.19
2019-01-29T08:29:14.228Z,99993.63
2019-01-29T08:33:38.668Z,99994.95
2019-01-29T08:37:43.666Z,99989.05
2019-01-29T08:42:07.821Z,99981.47
2019-01-29T08:50:48.108Z,99990.74
2019-01-29T08:54:53.137Z,99987.54
2019-01-29T08:58:58.143Z,99987.80
2019-01-29T09:03:03.586Z,99975.55
2019-01-29T09:07:08.660Z,99980.34
2019-01-29T09:19:46.755Z,99959.66
2019-01-29T09:23:51.895Z,99950.39
2019-01-29T09:28:08.610Z,99933.59
2019-01-29T09:32:13.699Z,99933.59
2019-01-29T09:36:18.820Z,99928.17
2019-01-29T09:40:23.853Z,99926.80
2019-01-29T09:44:29.526Z,99924.98
2019-01-29T09:48:34.566Z,99924.98
2019-01-29T09:52:51.744Z,99924.70
2019-01-29T09:56:56.983Z,99918.82
2019-01-29T10:01:02.011Z,99917.16
2019-01-29T10:05:07.523Z,99912.39
2019-01-29T10:09:12.583Z,99916.06
2019-01-29T10:13:17.671Z,99907.51
2019-01-29T10:17:41.776Z,99909.78
2019-01-29T10:21:47.061Z,99903.97
2019-01-29T10:25:52.166Z,99899.84
2019-01-29T10:34:46.100Z,99894.59
2019-01-29T10:38:51.201Z,99892.09
2019-01-29T10:42:59.054Z,99885.45
2019-01-29T10:47:04.163Z,99870.83
2019-01-29T10:51:11.337Z,99867.86
2019-01-29T10:55:35.359Z,99858.59
2019-01-29T10:59:40.480Z,99842.50
2019-01-29T11:03:45.561Z,99839.00
2019-01-29T11:07:50.876Z,99835.27
2019-01-29T11:11:56.014Z,99819.52
2019-01-29T11:16:01.095Z,99820.98
2019-01-29T11:20:46.350Z,99807.91
2019-01-29T11:25:10.586Z,99806.31
2019-01-29T11:29:15.774Z,99786.14
2019-01-29T11:33:20.858Z,99784.53
2019-01-29T11:37:25.949Z,99768.38
2019-01-29T11:41:31.433Z,99778.92
2019-01-29T11:45:47.994Z,99765.55
2019-01-29T11:49:53.348Z,99761.66
2019-01-29T11:53:58.388Z,99755.30
2019-01-29T11:58:03.444Z,99746.18
2019-01-29T12:02:09.188Z,99753.52
2019-01-29T12:06:14.493Z,99738.16
2019-01-29T12:10:20.488Z,99734.31
2019-01-29T12:14:25.618Z,99732.03
2019-01-29T12:18:30.690Z,99738.47
2019-01-29T12:22:36.106Z,99728.96
2019-01-29T12:26:41.174Z,99715.84
2019-01-29T12:30:46.292Z,99706.05
2019-01-29T12:34:51.328Z,99709.69
2019-01-29T12:38:56.444Z,99701.67
2019-01-29T12:43:01.511Z,99689.47
2019-01-29T12:47:06.541Z,99682.98
2019-01-29T12:51:21.860Z,99669.79
2019-01-29T12:55:46.019Z,99667.25
2019-01-29T12:59:52.745Z,99664.77
2019-01-29T13:03:57.750Z,99651.47
2019-01-29T13:08:02.857Z,99641.88
2019-01-29T13:12:07.895Z,99645.72
2019-01-29T13:16:13.026Z,99631.93
2019-01-29T13:20:18.042Z,99629.18
2019-01-29T13:24:23.035Z,99630.30
2019-01-29T13:28:28.071Z,99629.97
2019-01-29T13:32:33.136Z,99622.03
2019-01-29T13:36:38.443Z,99614.13
2019-01-29T13:40:44.467Z,99601.20
2019-01-29T13:44:49.579Z,99605.66
2019-01-29T13:48:54.672Z,99590.77
2019-01-29T13:53:00.716Z,99579.53
2019-01-29T13:57:05.888Z,99579.07
2019-01-29T14:01:10.991Z,99573.03
2019-01-29T14:05:19.167Z,99570.16
2019-01-29T14:09:24.536Z,99559.80
2019-01-29T14:13:29.565Z,99556.36
2019-01-29T14:17:34.651Z,99566.58
2019-01-29T14:21:39.703Z,99559.55
2019-01-29T14:25:44.819Z,99555.28
2019-01-29T14:29:49.907Z,99544.39
2019-01-29T14:33:55.112Z,99542.56
2019-01-29T14:38:44.375Z,99531.81
2019-01-29T14:42:50.458Z,99533.38
2019-01-29T14:46:55.556Z,99523.09
2019-01-29T14:51:00.599Z,99520.88
2019-01-29T14:55:06.952Z,99516.88
2019-01-29T14:59:12.047Z,99509.75
2019-01-29T15:03:17.199Z,99511.83
2019-01-29T15:07:30.258Z,99501.78
2019-01-29T15:11:29.258Z,99493.16
2019-01-29T15:15:36.950Z,99485.52
2019-01-29T15:19:42.081Z,99477.83
2019-01-29T15:23:47.271Z,99482.07
2019-01-29T15:27:52.395Z,99467.26
2019-01-29T15:31:57.465Z,99467.86
2019-01-29T15:36:02.567Z,99459.05
2019-01-29T15:40:10.045Z,99460.09
2019-01-29T15:44:15.237Z,99452.02
2019-01-29T15:48:20.309Z,99445.84
2019-01-29T15:52:25.416Z,99455.53
2019-01-29T15:56:30.462Z,99450.11
2019-01-29T16:00:36.076Z,99443.60
2019-01-29T16:04:41.357Z,99442.61
2019-01-29T16:08:46.523Z,99442.27
2019-01-29T16:12:51.673Z,99438.05
2019-01-29T16:16:56.736Z,99430.17
2019-01-29T16:21:01.807Z,99421.73
2019-01-29T16:25:08.281Z,99411.67
2019-01-29T16:29:13.392Z,99407.00
2019-01-29T16:33:18.496Z,99397.81
2019-01-29T16:37:23.471Z,99381.38
2019-01-29T16:41:28.625Z,99380.45
2019-01-29T16:45:33.959Z,99381.05
2019-01-29T16:49:39.177Z,99383.78
2019-01-29T16:53:44.300Z,99369.30
2019-01-29T16:57:49.559Z,99370.64
2019-01-29T17:01:54.592Z,99374.05
2019-01-29T17:05:59.664Z,99374.05
2019-01-29T17:10:05.445Z,99370.59
2019-01-29T17:14:10.587Z,99365.27
2019-01-29T17:18:15.812Z,99362.02
2019-01-29T17:22:20.980Z,99355.70
2019-01-29T17:26:26.120Z,99345.70
2019-01-29T17:30:33.556Z,99343.05
2019-01-29T17:34:38.637Z,99334.61
2019-01-29T17:38:44.776Z,99324.70
2019-01-29T17:42:50.192Z,99323.58
2019-01-29T17:46:55.381Z,99315.06
2019-01-29T17:51:00.493Z,99298.19
2019-01-29T17:55:06.197Z,99302.63
2019-01-29T17:59:11.273Z,99302.86
2019-01-29T18:03:16.320Z,99291.53
2019-01-29T18:07:21.264Z,99286.60
2019-01-29T18:11:26.378Z,99275.95
2019-01-29T18:15:31.454Z,99273.75
2019-01-29T18:19:36.526Z,99260.84
2019-01-29T18:23:41.580Z,99261.03
2019-01-29T18:27:46.578Z,99261.77
2019-01-29T18:31:51.662Z,99253.39
2019-01-29T18:35:56.821Z,99247.36
2019-01-29T18:40:01.965Z,99245.02
2019-01-29T18:44:07.263Z,99232.23
2019-01-29T18:48:12.260Z,99235.34
2019-01-29T18:52:28.812Z,99223.14
2019-01-29T18:56:33.997Z,99223.19
2019-01-29T19:00:39.058Z,99225.06
2019-01-29T19:04:44.146Z,99216.37
2019-01-29T19:08:49.247Z,99209.91
2019-01-29T19:12:54.405Z,99201.37
2019-01-29T19:16:59.603Z,99200.92
2019-01-29T19:21:04.708Z,99195.02
2019-01-29T19:25:11.447Z,99193.41
2019-01-29T19:29:16.548Z,99187.43
2019-01-29T19:37:57.535Z,99185.93
2019-01-29T19:42:13.934Z,99181.12
2019-01-29T19:46:19.120Z,99170.50
2019-01-29T19:50:25.406Z,99164.45
2019-01-29T19:54:30.565Z,99165.69
2019-01-29T20:02:59.569Z,99146.80
2019-01-29T20:11:34.061Z,99142.52
2019-01-29T20:15:39.211Z,99132.66
2019-01-29T20:19:44.341Z,99129.41
2019-01-29T20:23:49.381Z,99119.02
2019-01-29T20:27:54.471Z,99116.95
2019-01-29T20:31:59.581Z,99104.75
2019-01-29T20:36:04.764Z,99099.83
2019-01-29T20:40:12.379Z,99089.55
2019-01-29T20:44:19.162Z,99086.19
2019-01-29T20:48:24.218Z,99091.38
2019-01-29T20:52:29.458Z,99083.13
2019-01-29T20:57:12.732Z,99071.28
2019-01-29T21:01:17.834Z,99064.72
2019-01-29T21:05:22.991Z,99065.45
2019-01-29T21:09:28.145Z,99058.96
2019-01-29T21:13:33.203Z,99054.65
2019-01-29T21:17:38.670Z,99040.76
2019-01-29T21:21:43.828Z,99037.77
2019-01-29T21:25:48.936Z,99031.05
2019-01-29T21:29:53.987Z,99019.43
2019-01-29T21:33:59.081Z,99013.33
2019-01-29T21:38:04.513Z,99000.98
2019-01-29T21:42:09.947Z,98982.52
2019-01-29T21:46:15.101Z,98985.19
2019-01-29T21:50:22.554Z,98977.30
2019-01-29T21:54:27.686Z,98975.09
2019-01-29T21:58:33.584Z,98974.17
2019-01-29T22:02:38.717Z,98967.33
2019-01-29T22:06:43.943Z,98956.48
2019-01-29T22:10:49.013Z,98961.72
2019-01-29T22:14:54.049Z,98949.14
2019-01-29T22:18:59.121Z,98949.91
2019-01-29T22:23:04.255Z,98928.44
2019-01-29T22:27:09.344Z,98924.73
2019-01-29T22:31:14.478Z,98910.06
2019-01-29T22:35:19.605Z,98902.05
2019-01-29T22:39:24.634Z,98901.05
2019-01-29T22:43:29.623Z,98897.92
2019-01-29T22:47:34.750Z,98889.29
2019-01-29T22:51:40.402Z,98882.08
2019-01-29T22:55:45.466Z,98875.89
2019-01-29T22:59:50.388Z,98862.38
2019-01-29T23:04:08.848Z,98864.13
2019-01-29T23:08:14.048Z,98845.64
2019-01-29T23:12:19.175Z,98843.84
2019-01-29T23:16:24.299Z,98833.84
2019-01-29T23:20:29.324Z,98828.27
2019-01-29T23:24:34.416Z,98823.19
2019-01-29T23:28:51.155Z,98821.74
2019-01-29T23:32:56.287Z,98808.35
2019-01-29T23:37:01.408Z,98805.60
2019-01-29T23:41:25.570Z,98799.49
2019-01-29T23:45:30.656Z,98792.93
2019-01-29T23:49:35.681Z,98785.98
2019-01-29T23:53:40.726Z,98779.56
2019-01-29T23:57:45.847Z,98780.25
